Due to severe server failure at the provider, not all demo sites are operational. Will take some days to rebuilt everything.

Demonstration site - Click on the  for more information

This is an optional block. Switch it on/off in your settings-file: $SITE['bannerTop'] = false; or $SITE['bannerBottom'] = false;

You can display ads, any other important text or photo’s using text / html or PHP code.

You can place one or more at the top and or bottom and it can all be different for content / size .



Visit our other weather sites:

Template documentation
and downloads

And another site



Nearby METAR Reports

   
EBAW - Antwerp
Updated: 19-02-2019 13:50
Partly Cloudy  
Partly Cloudy  
   Wind: West 22.2 km/h
Wind: West 22.2 km/h
Temperature: 10°C
Wind Chill: 7°C
Dew Point: 3°C
Humidity: 62%
Barometer: 1020 hPa
Clouds: Partly Cloudy
Visibility: More than 10 km
Cloud details: Partly Cloudy 3000 ft
EBAW 191250Z 27012KT 9999 SCT030 10/03 Q1020 NOSIG
EBLG - Liège
Updated: 19-02-2019 13:50
Partly Cloudy  
Partly Cloudy  
   Wind: West 25.9 km/h
Wind: West 25.9 km/h
Temperature: 10°C
Wind Chill: 7°C
Dew Point: 3°C
Humidity: 62%
Barometer: 1020 hPa
Clouds: Partly Cloudy
Visibility: More than 10 km
Cloud details: Partly Cloudy 2500 ft
EBLG 191250Z 27014KT 9999 SCT025 10/03 Q1020 NOSIG
EBCV - Mons/Bergen
Updated: 19-02-2019 13:55
Few Clouds  
Few Clouds  
   Wind: WSW 16.7 km/h
Wind: WSW 16.7 km/h
Temperature: 10°C
Wind Chill: 8°C
Dew Point: 4°C
Humidity: 67%
Barometer: 1021 hPa
Clouds: Few Clouds
Visibility: More than 10 km
Cloud details: Few Clouds 2500 ft
EBCV 191255Z AUTO 25009KT 9999 FEW025/// 10/04 Q1021 BLU
EHBK - Maastricht
Updated: 19-02-2019 13:55
Overcast  
Overcast  
   Wind: WSW 18.5 km/h
Wind: WSW 18.5 km/h
Temperature: 10°C
Wind Chill: 8°C
Dew Point: 3°C
Humidity: 62%
Barometer: 1020 hPa
Clouds: Overcast
Visibility: More than 10 km
Cloud details: Mostly Cloudy 2700 ft,
Overcast 3100 ft
EHBK 191255Z AUTO 24010KT 200V300 9999 BKN027 OVC031 10/03 Q1020 NOSIG
ELLX - Luxemburg
Updated: 19-02-2019 13:50
Partly Cloudy  
Partly Cloudy  
   Wind: SW 18.5 km/h
Wind: SW 18.5 km/h
Temperature: 9°C
Wind Chill: 6°C
Dew Point: 2°C
Humidity: 62%
Barometer: 1021 hPa
Clouds: Partly Cloudy
Visibility: More than 10 km
Cloud details: Partly Cloudy 2500 ft
ELLX 191250Z 23010KT 9999 SCT025 09/02 Q1021 NOSIG
EBOS - Oostende
Updated: 19-02-2019 13:50
Few Clouds  
Few Clouds  
   Wind: West 31.5 km/h
Wind: West 31.5 km/h
Temperature: 9°C
Wind Chill: 5°C
Dew Point: 5°C
Humidity: 76%
Barometer: 1021 hPa
Clouds: Few Clouds
Visibility: More than 10 km
Cloud details: Few Clouds 2000 ft
EBOS 191250Z 26017KT 9999 FEW020 09/05 Q1021 NOSIG

Script developed by  Saratoga-weather.org Adapted for the template by  Weerstation Leuven

You find our weather info also at:

FRWN

Equipment we use:

Provider
Robohost

Robohost

This is an optional block. Switch it on/off in your settings-file: $SITE['bannerTop'] = false; or $SITE['bannerBottom'] = false;

You can display ads, any other important text or photo’s using text / html or PHP code.

You can place one or more at the top and or bottom and it can all be different for content / size .